createdAt,value
2022-09-20T00:01:21.713Z,8.8
2022-09-20T00:08:00.858Z,8.62
2022-09-20T00:13:06.866Z,8.53
2022-09-20T00:18:15.243Z,8.61
2022-09-20T00:23:23.383Z,8.67
2022-09-20T00:28:30.914Z,8.66
2022-09-20T00:33:39.467Z,8.66
2022-09-20T00:38:46.667Z,8.72
2022-09-20T00:43:54.551Z,8.82
2022-09-20T00:49:01.754Z,9.07
2022-09-20T00:54:10.578Z,9.24
2022-09-20T00:59:18.330Z,9.08
2022-09-20T01:04:25.805Z,8.96
2022-09-20T01:09:33.156Z,8.92
2022-09-20T01:14:40.932Z,8.9
2022-09-20T01:19:48.104Z,8.84
2022-09-20T01:24:56.367Z,8.88
2022-09-20T01:30:03.150Z,8.84
2022-09-20T01:35:10.914Z,8.93
2022-09-20T01:40:18.274Z,9.11
2022-09-20T01:45:26.238Z,9.34
2022-09-20T01:50:34.086Z,9.46
2022-09-20T01:55:41.703Z,9.42
2022-09-20T02:00:49.933Z,9.38
2022-09-20T02:05:58.005Z,9.26
2022-09-20T02:11:05.710Z,9.1
2022-09-20T02:16:14.712Z,9.08
2022-09-20T02:21:22.147Z,9.12
2022-09-20T02:26:30.461Z,9.12
2022-09-20T02:31:40.224Z,9.14
2022-09-20T02:36:48.656Z,9.08
2022-09-20T02:41:56.918Z,8.99
2022-09-20T02:47:03.955Z,9.12
2022-09-20T02:52:13.502Z,9.14
2022-09-20T02:57:20.831Z,9.16
2022-09-20T03:02:28.106Z,9.14
2022-09-20T03:07:35.445Z,9.04
2022-09-20T03:12:44.155Z,9.07
2022-09-20T03:17:53.019Z,9.08
2022-09-20T03:23:01.175Z,9.1
2022-09-20T03:28:08.588Z,9.11
2022-09-20T03:33:16.489Z,8.92
2022-09-20T03:38:22.980Z,8.86
2022-09-20T03:43:30.834Z,8.8
2022-09-20T03:48:38.195Z,8.72
2022-09-20T03:53:45.861Z,8.71
2022-09-20T03:58:53.782Z,8.82
2022-09-20T04:04:01.660Z,8.86
2022-09-20T04:09:08.942Z,9.02
2022-09-20T04:14:17.255Z,9.08
2022-09-20T04:19:24.478Z,9.14
2022-09-20T04:24:31.853Z,9.14
2022-09-20T04:29:40.702Z,9.16
2022-09-20T04:34:49.747Z,9.2
2022-09-20T04:39:57.571Z,9.26
2022-09-20T04:45:06.279Z,9.29
2022-09-20T04:50:14.872Z,9.32
2022-09-20T04:55:21.863Z,9.46
2022-09-20T05:00:29.054Z,9.55
2022-09-20T05:05:36.263Z,9.71
2022-09-20T05:10:44.498Z,9.89
2022-09-20T05:15:52.502Z,10.07
2022-09-20T05:21:03.128Z,10.21
2022-09-20T05:26:11.350Z,10.3
2022-09-20T05:31:19.193Z,10.3
2022-09-20T05:36:27.177Z,10.32
2022-09-20T05:41:35.890Z,10.28
2022-09-20T05:46:44.357Z,10.16
2022-09-20T05:51:51.889Z,10.32
2022-09-20T05:57:00.996Z,10.65
2022-09-20T06:02:08.589Z,11.04
2022-09-20T06:07:18.541Z,11.32
2022-09-20T06:12:31.675Z,11.02
2022-09-20T06:17:39.977Z,10.93
2022-09-20T06:22:47.303Z,11.05
2022-09-20T06:27:55.347Z,11.42
2022-09-20T06:33:03.235Z,11.72
2022-09-20T06:38:11.693Z,11.88
2022-09-20T06:43:19.847Z,11.96
2022-09-20T06:48:28.219Z,12.07
2022-09-20T06:53:35.661Z,12.2
2022-09-20T06:58:44.054Z,13.17
2022-09-20T07:03:51.961Z,13.64
2022-09-20T07:08:58.831Z,12.98
2022-09-20T07:14:07.561Z,12.66
2022-09-20T07:19:14.841Z,13.3
2022-09-20T07:24:23.115Z,13.54
2022-09-20T07:29:30.559Z,13.56
2022-09-20T07:34:38.666Z,13.88
2022-09-20T07:39:46.687Z,14.12
2022-09-20T07:44:54.798Z,15.25
2022-09-20T07:50:02.005Z,15.76
2022-09-20T07:55:09.119Z,15.62
2022-09-20T08:00:16.985Z,18.56
2022-09-20T08:05:26.148Z,23.6
2022-09-20T08:10:33.267Z,26.38
2022-09-20T08:15:41.642Z,21.06
2022-09-20T08:20:49.151Z,18.58
2022-09-20T08:25:56.110Z,18.04
2022-09-20T08:31:10.038Z,16.88
2022-09-20T08:36:16.906Z,16.36
2022-09-20T08:41:25.247Z,16.2
2022-09-20T08:46:32.573Z,16.25
2022-09-20T08:51:40.912Z,16.84
2022-09-20T08:56:47.672Z,17.65
2022-09-20T09:01:56.818Z,23.72
2022-09-20T09:07:04.597Z,28.26
2022-09-20T09:12:11.431Z,27.99
2022-09-20T09:17:18.603Z,23.56
2022-09-20T09:22:26.190Z,20.9
2022-09-20T09:32:44.556Z,26.01
2022-09-20T09:37:52.424Z,30.72
2022-09-20T09:43:03.105Z,33.19
2022-09-20T09:48:10.616Z,26.48
2022-09-20T09:53:18.780Z,26.93
2022-09-20T09:58:27.017Z,27.97
2022-09-20T10:03:33.977Z,25.28
2022-09-20T10:08:42.378Z,23.81
2022-09-20T10:13:49.079Z,22.2
2022-09-20T10:18:56.249Z,19.22
2022-09-20T10:24:04.048Z,17.08
2022-09-20T10:29:11.299Z,16.33
2022-09-20T10:34:19.144Z,16.85
2022-09-20T10:39:26.420Z,15.93
2022-09-20T10:44:34.220Z,15.36
2022-09-20T10:49:41.417Z,17.51
2022-09-20T10:54:49.867Z,24.62
2022-09-20T10:59:57.063Z,26.66
2022-09-20T11:05:04.185Z,25.1
2022-09-20T11:10:11.777Z,27.17
2022-09-20T11:15:21.088Z,31.62
2022-09-20T11:20:27.178Z,28.78
2022-09-20T11:25:36.145Z,23.52
2022-09-20T11:30:43.451Z,22.12
2022-09-20T11:35:50.625Z,21.31
2022-09-20T11:40:58.331Z,18.58
2022-09-20T11:46:06.322Z,17.2
2022-09-20T11:51:15.322Z,16.6
2022-09-20T11:56:21.879Z,15.6
2022-09-20T12:01:29.332Z,15.5
2022-09-20T12:06:36.427Z,15.6
2022-09-20T12:11:44.394Z,15.88
2022-09-20T12:16:50.818Z,15.74
2022-09-20T12:21:59.166Z,16.4
2022-09-20T12:27:06.002Z,16.65
2022-09-20T12:32:14.255Z,16.48
2022-09-20T12:37:21.539Z,18.57
2022-09-20T12:42:28.738Z,21.28
2022-09-20T12:47:35.904Z,18.94
2022-09-20T12:52:44.247Z,17.15
2022-09-20T12:57:52.014Z,15.7
2022-09-20T13:02:58.867Z,14.84
2022-09-20T13:08:05.386Z,14.68
2022-09-20T13:13:12.761Z,15.3
2022-09-20T13:18:20.466Z,15.7
2022-09-20T13:23:27.670Z,15.48
2022-09-20T13:28:36.489Z,15.09
2022-09-20T13:33:44.452Z,14.62
2022-09-20T13:38:51.782Z,14.22
2022-09-20T13:44:00.156Z,13.78
2022-09-20T13:49:07.458Z,13.6
2022-09-20T13:54:16.050Z,13.42
2022-09-20T13:59:23.187Z,13.46
2022-09-20T14:04:31.031Z,14.7
2022-09-20T14:09:38.235Z,14.88
2022-09-20T14:14:46.520Z,14.85
2022-09-20T14:19:53.216Z,15.01
2022-09-20T14:25:00.419Z,14.67
2022-09-20T14:30:07.618Z,15.02
2022-09-20T14:35:56.447Z,15.19
2022-09-20T14:41:04.905Z,15.08
2022-09-20T14:46:11.460Z,14.69
2022-09-20T14:51:19.946Z,14.61
2022-09-20T14:56:41.856Z,14.4
2022-09-20T15:01:49.920Z,14.1
2022-09-20T15:06:57.550Z,13.93
2022-09-20T15:12:04.884Z,13.44
2022-09-20T15:17:13.057Z,13.16
2022-09-20T15:22:19.824Z,12.86
2022-09-20T15:27:28.824Z,12.68
2022-09-20T15:32:36.355Z,12.48
2022-09-20T15:37:44.241Z,12.42
2022-09-20T15:42:51.375Z,12.25
2022-09-20T15:47:58.332Z,11.92
2022-09-20T15:53:05.466Z,11.72
2022-09-20T15:58:12.680Z,11.48
2022-09-20T16:03:20.657Z,11.28
2022-09-20T16:08:27.785Z,11.14
2022-09-20T16:13:34.975Z,11.02
2022-09-20T16:18:42.553Z,10.88
2022-09-20T16:23:50.605Z,10.7
2022-09-20T16:28:58.935Z,10.58
2022-09-20T16:34:06.856Z,10.34
2022-09-20T16:39:15.288Z,10.18
2022-09-20T16:45:01.767Z,10.12
2022-09-20T16:50:08.953Z,9.94
2022-09-20T16:55:16.154Z,9.83
2022-09-20T17:00:24.915Z,9.78
2022-09-20T17:05:31.839Z,9.66
2022-09-20T17:30:32.820Z,9.4
2022-09-20T17:35:37.921Z,9.36
2022-09-20T17:40:46.347Z,9.1
2022-09-20T17:45:53.546Z,8.92
2022-09-20T17:51:00.835Z,8.7
2022-09-20T17:56:09.152Z,8.54
2022-09-20T18:01:17.066Z,8.42
2022-09-20T18:06:25.594Z,8.42
2022-09-20T18:11:32.800Z,8.53
2022-09-20T18:16:40.576Z,8.7
2022-09-20T18:21:52.210Z,8.78
2022-09-20T18:27:00.888Z,8.72
2022-09-20T18:32:08.522Z,8.71
2022-09-20T18:37:16.664Z,8.7
2022-09-20T18:42:23.620Z,8.68
2022-09-20T18:47:32.632Z,8.57
2022-09-20T18:52:40.227Z,8.46
2022-09-20T18:57:47.144Z,8.39
2022-09-20T19:02:54.826Z,8.36
2022-09-20T19:08:02.131Z,8.42
2022-09-20T19:13:10.656Z,8.31
2022-09-20T19:18:18.439Z,8.28
2022-09-20T19:23:25.696Z,8.25
2022-09-20T19:28:32.896Z,8.24
2022-09-20T19:33:40.252Z,8.16
2022-09-20T19:38:48.158Z,8.11
2022-09-20T19:43:56.267Z,8.14
2022-09-20T19:49:03.622Z,8.08
2022-09-20T19:54:11.646Z,8.04
2022-09-20T19:59:18.029Z,8.08
2022-09-20T20:04:26.936Z,8.38
2022-09-20T20:09:35.369Z,8.5
2022-09-20T20:14:43.217Z,8.54
2022-09-20T20:19:51.317Z,8.52
2022-09-20T20:24:59.108Z,8.53
2022-09-20T20:30:05.706Z,8.51
2022-09-20T20:35:13.672Z,8.48
2022-09-20T20:40:21.383Z,8.49
2022-09-20T20:45:29.624Z,8.57
2022-09-20T20:50:36.470Z,8.58
2022-09-20T20:55:44.311Z,8.55
2022-09-20T21:00:52.024Z,8.64
2022-09-20T21:06:00.193Z,8.66
2022-09-20T21:11:08.291Z,8.65
2022-09-20T21:16:15.605Z,8.65
2022-09-20T21:21:24.636Z,8.65
2022-09-20T21:26:32.999Z,8.53
2022-09-20T21:31:41.266Z,8.47
2022-09-20T21:36:49.342Z,8.38
2022-09-20T21:41:57.488Z,8.44
2022-09-20T21:47:05.736Z,8.47
2022-09-20T21:52:13.910Z,8.52
2022-09-20T21:57:21.747Z,8.52
2022-09-20T22:02:33.270Z,8.6
2022-09-20T22:07:40.470Z,8.61
2022-09-20T22:12:48.099Z,8.65
2022-09-20T22:17:56.029Z,8.57
2022-09-20T22:23:04.133Z,8.49
2022-09-20T22:28:10.495Z,8.46
2022-09-20T22:33:20.024Z,8.44
2022-09-20T22:38:27.456Z,8.44
2022-09-20T22:43:35.287Z,8.38
2022-09-20T22:48:43.186Z,8.38
2022-09-20T22:53:50.416Z,8.36
2022-09-20T22:58:58.427Z,8.38
2022-09-20T23:04:06.134Z,8.31
2022-09-20T23:09:14.682Z,8.21
2022-09-20T23:14:22.887Z,8.24
2022-09-20T23:19:29.550Z,8.16
2022-09-20T23:24:37.423Z,8.2
2022-09-20T23:29:43.946Z,8.14
2022-09-20T23:34:51.739Z,8.14
2022-09-20T23:39:59.664Z,8.08
2022-09-20T23:45:07.659Z,8.08
2022-09-20T23:50:16.451Z,8.15
2022-09-20T23:55:24.927Z,8.12
